Time;durP1;ratioP1;P1;durP2;ratioP2;P2;SDS_P1;SDS_P2;PMS_P1;PMS_P2;Temp;Humidity;BMP_temperature;BMP_pressure;BME280_temperature;BME280_humidity;BME280_pressure;Samples;Min_cycle;Max_cycle;Signal;HPM_P1;HPM_P2
2023/09/10 00:01:12;;;;;;;58.30;50.75;;;;;;;;;;5011784;28;20030;-70
2023/09/10 00:03:38;;;;;;;57.63;49.25;;;;;;;;;;4996081;28;20135;-69
2023/09/10 00:06:05;;;;;;;54.85;47.25;;;;;;;;;;4991877;28;20033;-69
2023/09/10 00:08:32;;;;;;;57.10;49.55;;;;;;;;;;5007254;28;20404;-70
2023/09/10 00:10:58;;;;;;;55.85;49.80;;;;;;;;;;5015302;28;20037;-70
2023/09/10 00:13:25;;;;;;;56.80;50.70;;;;;;;;;;5008899;28;20026;-70
2023/09/10 00:15:51;;;;;;;58.00;51.63;;;;;;;;;;5005746;28;20543;-70
2023/09/10 00:18:18;;;;;;;60.15;53.03;;;;;;;;;;5004076;28;20042;-69
2023/09/10 00:20:44;;;;;;;61.22;52.58;;;;;;;;;;5008252;28;20030;-69
2023/09/10 00:23:11;;;;;;;58.90;52.45;;;;;;;;;;5002006;28;20051;-69
2023/09/10 00:25:37;;;;;;;60.95;54.20;;;;;;;;;;5006723;28;20022;-70
2023/09/10 00:28:03;;;;;;;59.58;53.15;;;;;;;;;;5006311;28;20491;-70
2023/09/10 00:30:29;;;;;;;59.03;50.70;;;;;;;;;;4995311;28;20081;-69
2023/09/10 00:32:55;;;;;;;57.55;51.17;;;;;;;;;;5016115;28;20125;-68
2023/09/10 00:35:22;;;;;;;59.63;51.38;;;;;;;;;;4996701;28;20108;-69
2023/09/10 00:37:48;;;;;;;59.22;52.25;;;;;;;;;;5008755;28;20046;-69
2023/09/10 00:40:14;;;;;;;65.05;54.25;;;;;;;;;;5027245;28;20021;-69
2023/09/10 00:42:40;;;;;;;69.72;57.90;;;;;;;;;;5016190;28;20052;-68
2023/09/10 00:45:07;;;;;;;68.93;58.83;;;;;;;;;;5008614;28;20068;-69
2023/09/10 00:47:34;;;;;;;64.45;56.15;;;;;;;;;;5007031;28;20394;-69
2023/09/10 00:50:01;;;;;;;76.57;61.85;;;;;;;;;;5018956;28;20029;-69
2023/09/10 00:52:29;;;;;;;81.65;61.58;;;;;;;;;;5019751;28;20037;-69
2023/09/10 00:54:55;;;;;;;73.20;61.85;;;;;;;;;;5020465;28;20117;-68
2023/09/10 00:57:22;;;;;;;70.75;61.25;;;;;;;;;;4998708;28;20495;-69
2023/09/10 00:59:48;;;;;;;70.55;61.10;;;;;;;;;;5021553;28;20457;-68
2023/09/10 01:02:15;;;;;;;68.53;59.90;;;;;;;;;;5004055;28;20038;-69
2023/09/10 01:04:42;;;;;;;74.50;61.65;;;;;;;;;;4992986;28;20046;-69
2023/09/10 01:07:09;;;;;;;75.97;63.35;;;;;;;;;;4992454;28;20499;-70
2023/09/10 01:09:35;;;;;;;81.95;68.13;;;;;;;;;;5005675;28;20034;-69
2023/09/10 01:12:13;;;;;;;81.35;69.28;;;;;;;;;;5002443;28;20033;-69
2023/09/10 01:14:58;;;;;;;76.03;65.13;;;;;;;;;;4989744;28;20065;-69
2023/09/10 01:17:31;;;;;;;75.22;65.78;;;;;;;;;;5003688;28;20021;-68
2023/09/10 01:20:22;;;;;;;78.38;67.65;;;;;;;;;;5012223;28;20511;-69
2023/09/10 01:22:58;;;;;;;84.07;66.95;;;;;;;;;;5016431;28;20018;-69
2023/09/10 01:25:25;;;;;;;81.28;64.20;;;;;;;;;;4971964;28;20029;-69
2023/09/10 01:27:51;;;;;;;90.80;69.78;;;;;;;;;;5002398;28;20585;-69
2023/09/10 01:30:17;;;;;;;81.88;68.70;;;;;;;;;;5000061;28;20079;-69
2023/09/10 01:32:48;;;;;;;82.45;69.97;;;;;;;;;;5007713;28;20033;-68
2023/09/10 01:35:22;;;;;;;83.78;69.90;;;;;;;;;;4996080;28;20502;-69
2023/09/10 01:37:54;;;;;;;78.65;68.65;;;;;;;;;;4987494;28;20077;-69
2023/09/10 01:40:21;;;;;;;83.47;69.80;;;;;;;;;;4999583;28;20030;-69
2023/09/10 01:42:49;;;;;;;78.53;69.38;;;;;;;;;;5012828;28;20026;-69
2023/09/10 01:45:15;;;;;;;82.32;68.38;;;;;;;;;;5015921;28;20038;-70
2023/09/10 01:47:41;;;;;;;85.20;66.75;;;;;;;;;;4992233;28;20022;-69
2023/09/10 01:50:08;;;;;;;79.50;65.90;;;;;;;;;;5019776;28;20518;-70
2023/09/10 01:52:34;;;;;;;75.88;65.10;;;;;;;;;;5004103;28;20030;-69
2023/09/10 01:55:00;;;;;;;69.78;61.40;;;;;;;;;;5001020;28;20053;-70
2023/09/10 01:57:26;;;;;;;73.43;62.58;;;;;;;;;;4989080;28;20121;-69
2023/09/10 01:59:53;;;;;;;69.90;62.03;;;;;;;;;;5011481;28;20033;-70
2023/09/10 02:02:19;;;;;;;74.43;62.38;;;;;;;;;;4979492;28;20116;-68
2023/09/10 02:04:45;;;;;;;71.43;61.72;;;;;;;;;;5004017;28;20076;-69
2023/09/10 02:07:11;;;;;;;68.57;60.03;;;;;;;;;;5003725;28;20046;-68
2023/09/10 02:09:37;;;;;;;72.47;59.88;;;;;;;;;;4997833;28;20044;-68
2023/09/10 02:12:04;;;;;;;72.47;61.13;;;;;;;;;;4993675;28;20022;-69
2023/09/10 02:14:30;;;;;;;76.95;62.60;;;;;;;;;;5001373;28;20046;-69
2023/09/10 02:16:56;;;;;;;71.28;61.20;;;;;;;;;;4977459;28;20411;-68
2023/09/10 02:19:22;;;;;;;69.32;59.97;;;;;;;;;;4995769;28;20023;-69
2023/09/10 02:21:50;;;;;;;69.65;59.85;;;;;;;;;;4999550;28;20068;-68
2023/09/10 02:24:16;;;;;;;68.40;60.80;;;;;;;;;;5010226;28;20026;-68
2023/09/10 02:26:42;;;;;;;77.47;61.85;;;;;;;;;;4991758;28;20116;-69
2023/09/10 02:29:08;;;;;;;70.70;61.00;;;;;;;;;;5016889;28;20116;-69
2023/09/10 02:31:34;;;;;;;64.07;56.67;;;;;;;;;;5014068;28;20029;-68
2023/09/10 02:34:01;;;;;;;67.50;57.85;;;;;;;;;;5023959;28;20441;-69
2023/09/10 02:36:28;;;;;;;66.18;57.50;;;;;;;;;;5003241;28;20034;-68
2023/09/10 02:38:54;;;;;;;72.97;58.85;;;;;;;;;;4997007;28;20044;-69
2023/09/10 02:41:21;;;;;;;67.97;56.38;;;;;;;;;;5011130;28;20065;-70
2023/09/10 02:43:47;;;;;;;68.25;57.67;;;;;;;;;;5012011;28;20029;-70
2023/09/10 02:46:13;;;;;;;67.93;56.20;;;;;;;;;;5011581;28;20026;-69
2023/09/10 02:48:39;;;;;;;64.22;54.95;;;;;;;;;;5018286;28;20103;-69
2023/09/10 02:51:05;;;;;;;66.90;55.53;;;;;;;;;;5009531;28;20038;-69
2023/09/10 02:53:31;;;;;;;67.00;56.13;;;;;;;;;;4998654;28;20064;-68
2023/09/10 02:56:01;;;;;;;64.82;54.67;;;;;;;;;;4981823;28;20053;-69
2023/09/10 02:58:27;;;;;;;66.32;55.58;;;;;;;;;;5019774;28;20030;-68
2023/09/10 03:00:53;;;;;;;68.32;55.75;;;;;;;;;;5023855;28;20029;-69
2023/09/10 03:03:19;;;;;;;69.82;58.47;;;;;;;;;;4996495;28;20030;-69
2023/09/10 03:05:46;;;;;;;68.35;58.47;;;;;;;;;;4997728;28;20044;-70
2023/09/10 03:08:12;;;;;;;79.32;63.90;;;;;;;;;;4998443;28;20033;-68
2023/09/10 03:10:39;;;;;;;74.50;61.33;;;;;;;;;;5024617;28;20049;-69
2023/09/10 03:13:05;;;;;;;70.65;62.45;;;;;;;;;;5006247;28;20067;-69
2023/09/10 03:15:31;;;;;;;70.82;60.22;;;;;;;;;;4992390;28;20037;-69
2023/09/10 03:17:59;;;;;;;71.60;60.65;;;;;;;;;;5004396;28;20030;-69
2023/09/10 03:20:25;;;;;;;70.18;57.55;;;;;;;;;;5011559;28;20125;-69
2023/09/10 03:22:57;;;;;;;65.93;56.92;;;;;;;;;;5002626;28;20033;-69
2023/09/10 03:25:23;;;;;;;63.95;56.20;;;;;;;;;;4994641;28;20100;-68
2023/09/10 03:27:50;;;;;;;63.65;53.90;;;;;;;;;;4997872;28;20044;-69
2023/09/10 03:30:17;;;;;;;59.28;51.95;;;;;;;;;;4999738;28;20042;-69
2023/09/10 03:32:43;;;;;;;63.05;53.20;;;;;;;;;;4997926;28;20086;-69
2023/09/10 03:35:11;;;;;;;62.75;53.65;;;;;;;;;;4971759;28;20133;-69
2023/09/10 03:37:37;;;;;;;61.10;54.15;;;;;;;;;;4978537;28;20056;-69
2023/09/10 03:40:05;;;;;;;69.65;56.10;;;;;;;;;;4983538;28;20026;-69
2023/09/10 03:42:33;;;;;;;65.63;56.15;;;;;;;;;;4977634;28;20088;-69
2023/09/10 03:45:00;;;;;;;68.93;55.90;;;;;;;;;;5000795;28;20029;-69
2023/09/10 03:47:28;;;;;;;72.22;56.17;;;;;;;;;;5000681;28;20042;-69
2023/09/10 03:49:55;;;;;;;69.20;58.60;;;;;;;;;;4973635;28;20049;-69
2023/09/10 03:52:22;;;;;;;71.15;58.20;;;;;;;;;;4998846;28;20025;-69
2023/09/10 03:54:48;;;;;;;79.22;59.35;;;;;;;;;;5010535;28;20030;-69
2023/09/10 03:57:15;;;;;;;65.53;57.15;;;;;;;;;;4971672;28;20030;-68
2023/09/10 03:59:42;;;;;;;68.90;57.53;;;;;;;;;;4974862;28;20513;-70
2023/09/10 04:02:08;;;;;;;66.78;57.58;;;;;;;;;;4987647;28;20032;-69
2023/09/10 04:04:34;;;;;;;65.40;57.05;;;;;;;;;;4999646;28;20168;-69
2023/09/10 04:07:01;;;;;;;69.60;57.75;;;;;;;;;;4985306;28;20369;-68
2023/09/10 04:09:27;;;;;;;73.30;58.55;;;;;;;;;;4999148;28;20117;-69
2023/09/10 04:11:54;;;;;;;72.20;61.80;;;;;;;;;;5016309;28;20030;-68
2023/09/10 04:14:20;;;;;;;77.28;61.67;;;;;;;;;;4988965;28;20496;-68
2023/09/10 04:16:46;;;;;;;77.50;64.93;;;;;;;;;;5001764;28;20030;-69
2023/09/10 04:19:13;;;;;;;78.78;60.25;;;;;;;;;;5009222;28;20213;-69
2023/09/10 04:21:39;;;;;;;77.45;64.05;;;;;;;;;;4992813;28;20084;-68
2023/09/10 04:24:05;;;;;;;77.35;63.50;;;;;;;;;;5018582;28;20110;-69
2023/09/10 04:26:31;;;;;;;74.35;62.22;;;;;;;;;;4983048;28;20057;-69
2023/09/10 04:28:58;;;;;;;77.50;62.70;;;;;;;;;;5004560;28;20129;-70
2023/09/10 04:31:25;;;;;;;77.38;63.70;;;;;;;;;;5003410;28;20053;-69
2023/09/10 04:33:51;;;;;;;76.22;62.40;;;;;;;;;;5026180;28;20377;-70
2023/09/10 04:36:17;;;;;;;73.90;63.33;;;;;;;;;;4993367;28;20032;-69
2023/09/10 04:38:44;;;;;;;72.43;62.95;;;;;;;;;;5004156;28;20038;-69
2023/09/10 04:41:10;;;;;;;79.95;63.72;;;;;;;;;;4998308;28;20022;-68
2023/09/10 04:43:37;;;;;;;76.20;63.13;;;;;;;;;;5002925;28;20083;-69
2023/09/10 04:46:03;;;;;;;77.15;65.43;;;;;;;;;;4995167;28;20088;-70
2023/09/10 04:48:29;;;;;;;84.70;66.32;;;;;;;;;;4998399;28;20463;-69
2023/09/10 04:50:55;;;;;;;72.03;63.28;;;;;;;;;;5012397;28;20041;-69
2023/09/10 04:53:21;;;;;;;80.10;63.72;;;;;;;;;;5002334;28;20044;-69
2023/09/10 04:55:54;;;;;;;74.82;60.90;;;;;;;;;;5006585;28;20030;-70
2023/09/10 04:58:22;;;;;;;69.90;58.92;;;;;;;;;;4993251;28;20029;-70
2023/09/10 05:00:50;;;;;;;75.13;61.25;;;;;;;;;;5007323;28;20030;-70
2023/09/10 05:03:16;;;;;;;78.03;61.22;;;;;;;;;;5012968;28;20021;-68
2023/09/10 05:05:42;;;;;;;80.15;61.75;;;;;;;;;;5013838;28;20050;-69
2023/09/10 05:08:09;;;;;;;71.78;61.78;;;;;;;;;;5014465;28;20143;-69
2023/09/10 05:10:35;;;;;;;73.00;61.45;;;;;;;;;;5023051;28;20113;-71
2023/09/10 05:13:02;;;;;;;73.55;61.85;;;;;;;;;;4996384;28;20031;-69
2023/09/10 05:15:28;;;;;;;75.22;61.22;;;;;;;;;;4996167;28;20080;-70
2023/09/10 05:17:54;;;;;;;67.93;59.75;;;;;;;;;;5008989;28;20109;-70
2023/09/10 05:20:21;;;;;;;68.95;58.33;;;;;;;;;;5013610;28;20037;-71
2023/09/10 05:22:47;;;;;;;70.75;60.45;;;;;;;;;;4996222;28;20042;-69
2023/09/10 05:25:13;;;;;;;68.70;59.55;;;;;;;;;;5013788;28;20042;-70
2023/09/10 05:27:39;;;;;;;68.00;58.45;;;;;;;;;;4994572;28;20032;-69
2023/09/10 05:30:06;;;;;;;73.00;57.22;;;;;;;;;;5005795;28;20047;-70
2023/09/10 05:32:32;;;;;;;68.68;59.28;;;;;;;;;;4985104;28;20034;-69
2023/09/10 05:34:59;;;;;;;66.47;57.35;;;;;;;;;;5022009;28;20107;-71
2023/09/10 05:37:25;;;;;;;65.88;55.42;;;;;;;;;;4998466;28;20042;-69
2023/09/10 05:39:52;;;;;;;64.25;52.92;;;;;;;;;;4992067;28;20085;-70
2023/09/10 05:42:18;;;;;;;59.83;51.88;;;;;;;;;;4985522;28;20030;-69
2023/09/10 05:44:44;;;;;;;62.67;52.45;;;;;;;;;;4979475;28;20026;-69
2023/09/10 05:47:10;;;;;;;60.60;51.58;;;;;;;;;;4984383;28;20202;-69
2023/09/10 05:49:37;;;;;;;58.22;50.42;;;;;;;;;;4993519;28;20038;-69
2023/09/10 05:52:04;;;;;;;59.38;51.35;;;;;;;;;;4976287;28;20034;-69
2023/09/10 05:54:30;;;;;;;56.72;50.45;;;;;;;;;;4991277;28;20077;-70
2023/09/10 05:56:56;;;;;;;55.75;49.42;;;;;;;;;;4995124;28;20062;-70
2023/09/10 05:59:22;;;;;;;54.63;48.83;;;;;;;;;;4991489;28;20552;-69
2023/09/10 06:01:49;;;;;;;57.00;48.60;;;;;;;;;;4984067;28;20493;-69
2023/09/10 06:04:15;;;;;;;57.50;47.70;;;;;;;;;;4992152;28;20042;-70
2023/09/10 06:06:41;;;;;;;52.15;46.55;;;;;;;;;;4983650;28;20490;-69
2023/09/10 06:09:07;;;;;;;49.13;43.83;;;;;;;;;;4997588;28;20030;-69
2023/09/10 06:11:33;;;;;;;50.63;44.25;;;;;;;;;;4987320;28;20037;-69
2023/09/10 06:14:00;;;;;;;48.83;42.55;;;;;;;;;;4996553;28;20092;-68
2023/09/10 06:16:26;;;;;;;45.92;40.92;;;;;;;;;;4979303;28;20490;-69
2023/09/10 06:18:52;;;;;;;46.53;39.53;;;;;;;;;;4990440;28;20061;-70
2023/09/10 06:21:18;;;;;;;46.10;37.47;;;;;;;;;;4988188;28;20168;-70
2023/09/10 06:23:44;;;;;;;42.28;35.13;;;;;;;;;;4989041;28;20026;-69
2023/09/10 06:26:12;;;;;;;39.00;34.42;;;;;;;;;;4986151;28;20392;-68
2023/09/10 06:28:39;;;;;;;39.83;34.55;;;;;;;;;;5008816;28;20026;-68
2023/09/10 06:31:09;;;;;;;38.72;34.60;;;;;;;;;;4985744;28;20035;-70
2023/09/10 06:33:35;;;;;;;39.63;35.47;;;;;;;;;;4982874;28;20031;-69
2023/09/10 06:36:02;;;;;;;39.60;35.30;;;;;;;;;;4980858;28;20042;-70
2023/09/10 06:38:28;;;;;;;41.63;36.72;;;;;;;;;;4994840;28;20499;-67
2023/09/10 06:40:55;;;;;;;42.20;33.38;;;;;;;;;;4993262;28;20022;-70
2023/09/10 06:43:21;;;;;;;41.75;33.83;;;;;;;;;;4994116;28;20042;-69
2023/09/10 06:45:58;;;;;;;39.40;33.22;;;;;;;;;;4990071;28;20073;-70
2023/09/10 06:48:24;;;;;;;40.17;33.22;;;;;;;;;;5020730;28;20045;-70
2023/09/10 06:50:51;;;;;;;35.40;31.55;;;;;;;;;;5012082;28;20033;-70
2023/09/10 06:53:17;;;;;;;35.40;30.95;;;;;;;;;;5010070;28;20447;-70
2023/09/10 06:55:43;;;;;;;34.65;30.80;;;;;;;;;;5014182;28;20037;-71
2023/09/10 06:58:09;;;;;;;37.25;31.48;;;;;;;;;;4996889;28;20080;-70
2023/09/10 07:00:35;;;;;;;39.35;31.88;;;;;;;;;;5006629;28;20042;-69
2023/09/10 07:03:05;;;;;;;35.13;30.23;;;;;;;;;;5024056;28;20083;-69
2023/09/10 07:05:32;;;;;;;35.30;30.45;;;;;;;;;;5016782;28;20037;-67
2023/09/10 07:07:58;;;;;;;34.67;28.50;;;;;;;;;;5005970;28;20021;-69
2023/09/10 07:10:24;;;;;;;33.45;29.33;;;;;;;;;;4998466;28;20037;-69
2023/09/10 07:12:50;;;;;;;33.70;28.98;;;;;;;;;;5002515;28;20121;-70
2023/09/10 07:15:16;;;;;;;38.50;29.45;;;;;;;;;;5022617;28;20033;-70
2023/09/10 07:17:42;;;;;;;35.00;29.13;;;;;;;;;;5022427;28;20022;-70
2023/09/10 07:20:09;;;;;;;34.22;30.50;;;;;;;;;;4988790;28;20037;-69
2023/09/10 07:22:35;;;;;;;37.30;29.92;;;;;;;;;;5013460;28;20164;-69
2023/09/10 07:25:01;;;;;;;34.97;31.25;;;;;;;;;;5018027;28;20161;-70
2023/09/10 07:27:27;;;;;;;33.03;29.38;;;;;;;;;;5007712;28;20326;-68
2023/09/10 07:29:53;;;;;;;35.22;29.67;;;;;;;;;;5014493;28;20128;-69
2023/09/10 07:32:19;;;;;;;34.42;29.25;;;;;;;;;;4999050;28;20030;-69
2023/09/10 07:34:46;;;;;;;36.97;30.52;;;;;;;;;;5002508;28;20033;-70
2023/09/10 07:37:12;;;;;;;36.03;30.95;;;;;;;;;;5015760;28;20030;-70
2023/09/10 07:39:38;;;;;;;37.00;29.50;;;;;;;;;;5023098;28;20129;-70
2023/09/10 07:42:04;;;;;;;33.00;29.48;;;;;;;;;;4994026;28;20145;-70
2023/09/10 07:44:30;;;;;;;37.83;30.05;;;;;;;;;;5015883;28;20032;-70
2023/09/10 07:46:57;;;;;;;32.97;29.55;;;;;;;;;;4997826;28;20034;-69
2023/09/10 07:49:23;;;;;;;36.00;28.60;;;;;;;;;;5018479;28;20029;-69
2023/09/10 07:51:49;;;;;;;39.95;31.60;;;;;;;;;;4998252;28;20068;-69
2023/09/10 07:54:16;;;;;;;40.33;30.80;;;;;;;;;;5018683;28;20487;-70
2023/09/10 07:56:45;;;;;;;36.72;29.90;;;;;;;;;;5010458;28;20045;-69
2023/09/10 07:59:11;;;;;;;36.97;29.65;;;;;;;;;;5012763;28;20276;-69
2023/09/10 08:01:38;;;;;;;35.70;28.63;;;;;;;;;;4985030;28;20707;-69
2023/09/10 08:04:05;;;;;;;35.63;29.27;;;;;;;;;;4995785;28;20515;-69
2023/09/10 08:06:31;;;;;;;34.70;29.92;;;;;;;;;;4985335;28;20057;-68
2023/09/10 08:08:58;;;;;;;38.80;30.58;;;;;;;;;;5008775;28;20049;-69
2023/09/10 08:11:25;;;;;;;36.05;28.73;;;;;;;;;;5007722;28;20034;-69
2023/09/10 08:13:51;;;;;;;37.20;28.75;;;;;;;;;;5010882;28;20037;-69
2023/09/10 08:16:17;;;;;;;32.80;28.17;;;;;;;;;;5009574;28;20025;-69
2023/09/10 08:18:45;;;;;;;37.30;28.13;;;;;;;;;;5000186;28;20042;-69
2023/09/10 08:21:11;;;;;;;35.95;28.02;;;;;;;;;;5009128;28;20035;-69
2023/09/10 08:23:37;;;;;;;38.63;29.15;;;;;;;;;;5010756;28;20038;-69
2023/09/10 08:26:04;;;;;;;33.95;26.73;;;;;;;;;;5009845;28;20108;-70
2023/09/10 08:28:30;;;;;;;34.50;27.45;;;;;;;;;;4997870;28;20030;-69
2023/09/10 08:30:56;;;;;;;37.83;27.67;;;;;;;;;;4976091;28;20123;-69
2023/09/10 08:33:25;;;;;;;37.30;27.33;;;;;;;;;;4996791;28;20487;-70
2023/09/10 08:35:51;;;;;;;37.22;25.90;;;;;;;;;;5014876;28;20053;-69
2023/09/10 08:38:18;;;;;;;30.40;24.90;;;;;;;;;;5008307;28;20042;-70
2023/09/10 08:40:56;;;;;;;30.27;22.13;;;;;;;;;;5020235;28;20022;-70
2023/09/10 08:43:24;;;;;;;32.25;23.38;;;;;;;;;;5005375;28;20113;-70
2023/09/10 08:45:51;;;;;;;26.50;22.52;;;;;;;;;;5009781;28;20033;-70
2023/09/10 08:48:19;;;;;;;27.98;21.35;;;;;;;;;;5009615;28;20479;-70
2023/09/10 08:50:46;;;;;;;31.00;20.83;;;;;;;;;;5015728;28;20029;-70
2023/09/10 08:53:13;;;;;;;31.23;21.02;;;;;;;;;;5010416;28;20073;-70
2023/09/10 08:55:42;;;;;;;30.02;19.98;;;;;;;;;;5009228;28;20040;-68
2023/09/10 08:58:09;;;;;;;30.23;20.33;;;;;;;;;;5001183;28;20041;-70
2023/09/10 09:00:36;;;;;;;28.85;18.95;;;;;;;;;;5019388;28;20026;-70
2023/09/10 09:03:03;;;;;;;23.13;17.10;;;;;;;;;;5021164;28;20040;-70
2023/09/10 09:05:30;;;;;;;25.60;18.48;;;;;;;;;;5023755;28;20136;-70
2023/09/10 09:07:57;;;;;;;24.80;17.45;;;;;;;;;;4997111;28;20059;-70
2023/09/10 09:10:27;;;;;;;24.25;16.88;;;;;;;;;;4978903;28;20043;-68
2023/09/10 09:12:59;;;;;;;23.15;17.20;;;;;;;;;;5010195;28;20014;-69
2023/09/10 09:15:26;;;;;;;29.77;18.08;;;;;;;;;;4984932;28;20092;-68
2023/09/10 09:17:54;;;;;;;25.48;16.52;;;;;;;;;;5005867;28;20114;-69
2023/09/10 09:20:20;;;;;;;20.58;15.88;;;;;;;;;;4994358;28;20060;-69
2023/09/10 09:22:49;;;;;;;31.88;16.80;;;;;;;;;;5009434;28;20087;-69
2023/09/10 09:25:16;;;;;;;24.85;15.68;;;;;;;;;;4999056;28;20029;-70
2023/09/10 09:27:43;;;;;;;23.67;16.05;;;;;;;;;;5009929;28;20076;-70
2023/09/10 09:30:11;;;;;;;25.05;15.80;;;;;;;;;;5008387;28;20034;-70
2023/09/10 09:32:39;;;;;;;24.67;16.95;;;;;;;;;;5002689;28;20053;-69
2023/09/10 09:35:05;;;;;;;26.17;16.92;;;;;;;;;;4986219;28;20488;-69
2023/09/10 09:37:32;;;;;;;18.13;15.68;;;;;;;;;;4990426;28;20473;-70
2023/09/10 09:40:01;;;;;;;25.67;15.73;;;;;;;;;;5007993;28;20042;-69
2023/09/10 09:42:27;;;;;;;20.88;14.43;;;;;;;;;;4996810;28;20066;-70
2023/09/10 09:44:54;;;;;;;21.20;14.55;;;;;;;;;;4993293;28;20383;-70
2023/09/10 09:47:20;;;;;;;22.27;14.90;;;;;;;;;;4992770;28;20045;-70
2023/09/10 09:49:50;;;;;;;23.60;14.15;;;;;;;;;;5012360;28;20044;-70
2023/09/10 09:52:21;;;;;;;21.02;14.45;;;;;;;;;;5005924;28;20038;-70
2023/09/10 09:54:48;;;;;;;28.55;15.02;;;;;;;;;;5008964;28;20042;-69
2023/09/10 09:57:14;;;;;;;23.48;14.77;;;;;;;;;;5013316;28;20487;-70
2023/09/10 09:59:40;;;;;;;17.15;13.23;;;;;;;;;;5014431;28;20030;-69
2023/09/10 10:02:10;;;;;;;22.48;15.02;;;;;;;;;;5009642;28;20045;-69
2023/09/10 10:04:36;;;;;;;23.70;14.13;;;;;;;;;;5003059;28;20027;-70
2023/09/10 10:07:02;;;;;;;23.40;13.93;;;;;;;;;;4992997;28;20045;-70
2023/09/10 10:09:35;;;;;;;20.77;12.93;;;;;;;;;;5006527;28;20491;-70
2023/09/10 10:12:05;;;;;;;27.08;14.10;;;;;;;;;;5024437;28;20071;-70
2023/09/10 10:14:31;;;;;;;;;;;;;;;;;;4986990;28;20038;-70
2023/09/10 10:16:58;;;;;;;20.85;12.48;;;;;;;;;;5006339;28;21711;-70
2023/09/10 10:19:24;;;;;;;19.05;13.90;;;;;;;;;;5013257;28;20026;-70
2023/09/10 10:21:50;;;;;;;20.80;12.05;;;;;;;;;;5010347;28;20029;-68
2023/09/10 10:24:17;;;;;;;21.75;13.15;;;;;;;;;;4974674;28;20036;-70
2023/09/10 10:26:44;;;;;;;20.00;13.68;;;;;;;;;;5007623;28;20042;-70
2023/09/10 10:29:10;;;;;;;24.17;13.57;;;;;;;;;;5010580;28;20038;-70
2023/09/10 10:31:37;;;;;;;19.35;10.77;;;;;;;;;;5009804;28;20132;-70
2023/09/10 10:34:09;;;;;;;17.35;11.93;;;;;;;;;;5003971;28;20030;-69
2023/09/10 10:36:47;;;;;;;20.50;10.82;;;;;;;;;;4992621;28;20033;-68
2023/09/10 10:39:15;;;;;;;22.75;11.50;;;;;;;;;;5000032;28;20125;-70
2023/09/10 10:41:45;;;;;;;20.67;11.68;;;;;;;;;;5012395;28;20036;-71
2023/09/10 10:44:11;;;;;;;28.40;11.07;;;;;;;;;;4994505;28;20123;-70
2023/09/10 10:46:38;;;;;;;19.60;11.75;;;;;;;;;;5012524;28;20343;-70
2023/09/10 10:49:07;;;;;;;19.55;11.65;;;;;;;;;;5010706;28;20140;-70
2023/09/10 10:51:37;;;;;;;20.30;11.88;;;;;;;;;;5014218;28;20034;-70
2023/09/10 10:54:04;;;;;;;23.52;11.98;;;;;;;;;;5032417;28;20068;-70
2023/09/10 10:56:30;;;;;;;19.55;12.52;;;;;;;;;;5001058;28;20034;-70
2023/09/10 10:58:56;;;;;;;19.55;13.48;;;;;;;;;;5011847;28;20037;-69
2023/09/10 11:01:23;;;;;;;19.55;11.45;;;;;;;;;;4996612;28;20037;-69
2023/09/10 11:03:49;;;;;;;18.90;10.77;;;;;;;;;;5008426;28;20060;-70
2023/09/10 11:06:15;;;;;;;19.85;11.43;;;;;;;;;;5008999;28;20026;-70
2023/09/10 11:08:42;;;;;;;18.83;11.07;;;;;;;;;;5010288;28;20129;-70
2023/09/10 11:11:28;;;;;;;15.05;11.15;;;;;;;;;;5023303;28;20040;-69
2023/09/10 11:14:00;;;;;;;21.67;11.20;;;;;;;;;;5001249;28;20072;-70
2023/09/10 11:16:28;;;;;;;20.98;10.95;;;;;;;;;;4992251;28;20038;-69
2023/09/10 11:18:54;;;;;;;18.90;10.73;;;;;;;;;;4977043;28;20030;-69
2023/09/10 11:21:20;;;;;;;25.30;11.02;;;;;;;;;;4991557;28;20028;-71
2023/09/10 11:23:46;;;;;;;20.10;10.50;;;;;;;;;;5007899;28;20428;-69
2023/09/10 11:26:15;;;;;;;17.48;9.95;;;;;;;;;;5011575;28;20068;-70
2023/09/10 11:28:52;;;;;;;18.57;10.50;;;;;;;;;;5018751;28;20053;-70
2023/09/10 11:31:45;;;;;;;14.20;9.65;;;;;;;;;;5009824;28;20069;-70
2023/09/10 11:34:18;;;;;;;22.25;9.70;;;;;;;;;;5010312;28;20584;-70
2023/09/10 11:36:51;;;;;;;19.00;10.65;;;;;;;;;;4993609;28;20091;-70
2023/09/10 11:39:18;;;;;;;18.55;11.32;;;;;;;;;;5020138;28;20054;-69
2023/09/10 11:41:45;;;;;;;22.25;12.35;;;;;;;;;;4999901;28;20647;-70
2023/09/10 11:44:12;;;;;;;18.63;10.38;;;;;;;;;;5009741;28;20065;-69
2023/09/10 11:46:38;;;;;;;21.90;11.65;;;;;;;;;;5010283;28;20033;-70
2023/09/10 11:49:04;;;;;;;21.30;11.63;;;;;;;;;;5013176;28;20388;-70
2023/09/10 11:51:31;;;;;;;20.15;10.40;;;;;;;;;;5011488;28;20092;-69
2023/09/10 11:53:57;;;;;;;15.98;9.93;;;;;;;;;;4992560;28;20042;-70
2023/09/10 11:56:23;;;;;;;17.33;9.98;;;;;;;;;;5021159;28;20025;-69
2023/09/10 11:58:50;;;;;;;17.23;10.55;;;;;;;;;;5001829;28;20062;-70
2023/09/10 12:01:16;;;;;;;13.27;10.63;;;;;;;;;;4992903;28;20084;-69
2023/09/10 12:03:44;;;;;;;18.58;9.48;;;;;;;;;;5009202;28;20408;-69
2023/09/10 12:06:11;;;;;;;32.53;11.77;;;;;;;;;;5008551;28;20406;-68
2023/09/10 12:08:38;;;;;;;16.63;10.13;;;;;;;;;;4995300;28;20125;-69
2023/09/10 12:11:06;;;;;;;18.27;10.63;;;;;;;;;;5010196;28;20025;-70
2023/09/10 12:13:33;;;;;;;19.00;10.48;;;;;;;;;;5030903;28;20119;-70
2023/09/10 12:16:00;;;;;;;16.00;9.00;;;;;;;;;;5013459;28;20033;-69
2023/09/10 12:18:26;;;;;;;17.95;9.93;;;;;;;;;;5025089;28;20464;-70
2023/09/10 12:20:52;;;;;;;21.95;10.27;;;;;;;;;;5010015;28;20306;-68
2023/09/10 12:23:19;;;;;;;15.90;9.80;;;;;;;;;;4992781;28;20022;-71
2023/09/10 12:25:53;;;;;;;17.50;8.90;;;;;;;;;;5007981;28;20093;-69
2023/09/10 12:28:19;;;;;;;20.20;9.40;;;;;;;;;;5008394;28;20030;-69
2023/09/10 12:30:45;;;;;;;15.85;9.52;;;;;;;;;;5010725;28;20029;-68
2023/09/10 12:33:11;;;;;;;17.27;9.02;;;;;;;;;;4992768;28;20480;-70
2023/09/10 12:35:37;;;;;;;18.67;8.70;;;;;;;;;;5009505;28;20038;-70
2023/09/10 12:38:04;;;;;;;17.77;7.15;;;;;;;;;;5009746;28;20045;-70
2023/09/10 12:40:30;;;;;;;13.48;7.20;;;;;;;;;;5010023;28;20057;-70
2023/09/10 12:42:56;;;;;;;18.73;7.95;;;;;;;;;;5010527;28;20041;-70
2023/09/10 12:45:23;;;;;;;16.02;7.95;;;;;;;;;;5004086;28;20057;-69
2023/09/10 12:47:49;;;;;;;17.52;6.85;;;;;;;;;;5010213;28;20037;-70
2023/09/10 12:50:15;;;;;;;16.98;7.60;;;;;;;;;;5011057;28;20038;-71
2023/09/10 12:52:41;;;;;;;16.35;8.15;;;;;;;;;;4988756;28;20050;-71
2023/09/10 12:55:07;;;;;;;17.70;8.02;;;;;;;;;;4972854;28;20085;-70
2023/09/10 12:57:34;;;;;;;12.27;6.70;;;;;;;;;;4996703;28;20057;-70
2023/09/10 13:00:01;;;;;;;18.60;7.15;;;;;;;;;;5007978;28;20033;-70
2023/09/10 13:02:36;;;;;;;15.73;7.07;;;;;;;;;;4995077;28;20480;-70
2023/09/10 13:05:02;;;;;;;15.23;7.60;;;;;;;;;;5004933;28;20053;-71
2023/09/10 13:07:29;;;;;;;10.63;7.00;;;;;;;;;;4996142;28;20135;-70
2023/09/10 13:09:56;;;;;;;19.50;7.53;;;;;;;;;;5026330;28;20095;-70
2023/09/10 13:12:22;;;;;;;11.25;7.20;;;;;;;;;;5029464;28;20045;-70
2023/09/10 13:14:48;;;;;;;14.60;7.35;;;;;;;;;;5011830;28;20045;-70
2023/09/10 13:17:14;;;;;;;21.35;7.18;;;;;;;;;;5006258;28;20105;-70
2023/09/10 13:19:40;;;;;;;12.88;6.97;;;;;;;;;;5012582;28;20033;-69
2023/09/10 13:22:07;;;;;;;17.63;7.78;;;;;;;;;;5010042;28;20056;-70
2023/09/10 13:24:33;;;;;;;20.65;6.78;;;;;;;;;;5014971;28;20057;-70
2023/09/10 13:27:00;;;;;;;22.42;7.53;;;;;;;;;;5015716;28;20022;-71
2023/09/10 13:29:26;;;;;;;14.85;7.25;;;;;;;;;;4992705;28;20038;-69
2023/09/10 13:31:52;;;;;;;17.20;7.22;;;;;;;;;;4974595;28;20512;-69
2023/09/10 13:34:18;;;;;;;17.75;7.97;;;;;;;;;;4998492;28;20061;-70
2023/09/10 13:36:44;;;;;;;13.80;7.28;;;;;;;;;;5006867;28;20619;-70
2023/09/10 13:39:12;;;;;;;23.60;7.35;;;;;;;;;;4999505;28;20073;-69
2023/09/10 13:41:38;;;;;;;14.20;6.00;;;;;;;;;;5001924;28;20033;-73
2023/09/10 13:44:04;;;;;;;16.80;7.00;;;;;;;;;;4994187;28;20030;-70
2023/09/10 13:46:30;;;;;;;22.75;7.53;;;;;;;;;;4992365;28;20040;-69
2023/09/10 13:48:56;;;;;;;15.27;6.65;;;;;;;;;;4991526;28;20041;-70
2023/09/10 13:51:23;;;;;;;11.48;6.60;;;;;;;;;;4992007;28;20034;-70
2023/09/10 13:53:49;;;;;;;13.38;6.85;;;;;;;;;;4992107;28;20038;-68
2023/09/10 13:56:15;;;;;;;13.82;7.05;;;;;;;;;;5007725;28;20066;-69
2023/09/10 13:58:41;;;;;;;11.13;6.35;;;;;;;;;;4997990;28;20081;-69
2023/09/10 14:01:09;;;;;;;15.15;6.63;;;;;;;;;;5013188;28;20415;-70
2023/09/10 14:03:35;;;;;;;12.95;6.70;;;;;;;;;;5011366;28;20518;-69
2023/09/10 14:06:02;;;;;;;12.48;6.70;;;;;;;;;;5009825;28;20068;-70
2023/09/10 14:08:28;;;;;;;16.73;6.82;;;;;;;;;;5005891;28;20129;-70
2023/09/10 14:10:54;;;;;;;15.90;6.43;;;;;;;;;;5012728;28;20034;-69
2023/09/10 14:13:20;;;;;;;14.32;6.50;;;;;;;;;;4990430;28;20076;-70
2023/09/10 14:15:46;;;;;;;15.50;6.70;;;;;;;;;;4995767;28;20060;-71
2023/09/10 14:18:13;;;;;;;19.38;7.07;;;;;;;;;;4996179;28;20026;-70